Airfield :
LOGIN :

Register | Disclaimer

   EN    FR    IT 

 










Legend :    VFR   Marginal VFR   IFR   Intensive IFR   Very Intensive IFR
Visi :
Ceiling :
>= 8 km
>= 3000ft
5 to 8 km
1000 to 3000 ft
1500m to 5 km
500 to 1000 ft
800 to 1500m
200 to 500 ft
< 800m
< 200 ft
Symbols :   Thunderstorms  Fog  Heavy snow  Heavy precipitations  Wind > 20 kt
SIGMETs :     Misc.  Thunderstorms  Icing  Turbulence  Mountain Waves  Volcanic Ashes







- Airport Elevation : 598 ft
- IATA code : BQH
- Download approach charts


EGKB - Biggin Hill

CURRENT METAR :
  • 241550Z 13008KT 4000 -SHRA BR FEW015 16/13 Q1020

EXPIRED METARs :
  • 241520Z 13008KT 6000 -SHRA NSC 16/13 Q1020
  • 241450Z 13008KT 8000 NSC 16/13 Q1020
  • 241350Z 13008KT 8000 NSC 16/13 Q1020
  • 241320Z 13008KT 8000 NSC 16/13 Q1020
  • 241250Z 13008KT CAVOK 16/13 Q1020

TAF TAF EGKB
Valid from the 24 at 12:00 until the 24 at 21:00 UTC


241102Z 2412/2421 03008KT 5000 HZ BKN010
TEMPO 2412/2421 SHRA
PROB40 2412/2418 9999 NSW FEW012
PROB30
TEMPO 2415/2421 4000 +SHRA
BECMG 2418/2421 9999 NSW FEW010
No reported NOTAMs for that airfield.



MET'MAP, your aeronautical weather chart ! - Copyright ORBIFLY December 2007 - Disclaimer

ORBIFLY MET'MAP TEAM :

Programming & Development : Alexandra Zaïnal
Concept & Development : Baudouin d'Aumeries
Co-Development & Prog : Marc-Olivier Méhu
Technical & hardware support : Manuel Goepfert

Contact : metmap@orbifly.com




SOURCES & CREDITS :

   NOAA